Time;durP1;ratioP1;P1;durP2;ratioP2;P2;SDS_P1;SDS_P2;PMS_P1;PMS_P2;Temp;Humidity;BMP_temperature;BMP_pressure;BME280_temperature;BME280_humidity;BME280_pressure;Samples;Min_cycle;Max_cycle;Signal;HPM_P1;HPM_P2
2024/01/10 00:00:13;;;;;;;20.83;13.57;;;-0.60;41.90;;;;;;21018;6714;117326;-76
2024/01/10 00:02:46;;;;;;;18.77;14.03;;;-0.90;42.40;;;;;;20992;6714;117153;-76
2024/01/10 00:05:24;;;;;;;22.17;14.83;;;-1.10;43.00;;;;;;20975;6729;117638;-76
2024/01/10 00:07:58;;;;;;;22.87;14.87;;;-1.40;43.80;;;;;;21027;6712;117540;-75
2024/01/10 00:10:33;;;;;;;17.23;13.23;;;-1.40;43.80;;;;;;20995;6721;119353;-76
2024/01/10 00:13:09;;;;;;;19.30;13.97;;;-1.50;44.00;;;;;;20942;6721;117397;-76
2024/01/10 00:15:45;;;;;;;25.00;19.80;;;-1.50;44.10;;;;;;20736;6736;305849;-74
2024/01/10 00:18:21;;;;;;;24.40;20.50;;;-1.50;44.10;;;;;;20763;6729;277043;-77
2024/01/10 00:20:56;;;;;;;22.47;15.87;;;-1.20;43.30;;;;;;20904;6744;117664;-76
2024/01/10 00:23:32;;;;;;;24.47;19.90;;;-1.10;43.20;;;;;;20712;6717;309351;-76
2024/01/10 00:26:07;;;;;;;18.50;14.20;;;-1.10;43.10;;;;;;21018;6716;117293;-77
2024/01/10 00:28:45;;;;;;;23.00;18.97;;;-1.10;43.10;;;;;;20806;6714;307459;-76
2024/01/10 00:31:19;;;;;;;23.23;19.40;;;-0.80;42.90;;;;;;20791;6714;277107;-77
2024/01/10 00:33:55;;;;;;;21.67;19.17;;;-0.80;42.90;;;;;;20634;6731;307266;-76
2024/01/10 00:36:30;;;;;;;19.53;14.47;;;-0.60;42.30;;;;;;21009;6716;117280;-76
2024/01/10 00:39:06;;;;;;;26.03;20.13;;;-0.70;42.40;;;;;;20752;6727;276395;-75
2024/01/10 00:41:42;;;;;;;25.43;15.87;;;-0.70;42.60;;;;;;20969;6731;117238;-77
2024/01/10 00:44:17;;;;;;;21.87;15.13;;;-0.80;42.70;;;;;;20828;6727;118087;-76
2024/01/10 00:46:53;;;;;;;22.83;15.03;;;-1.10;43.30;;;;;;20997;6716;117684;-78
2024/01/10 00:49:28;;;;;;;26.50;20.97;;;-1.30;43.80;;;;;;20802;6716;291259;-78
2024/01/10 00:52:04;;;;;;;21.27;15.50;;;-1.20;43.90;;;;;;21012;6716;117226;-76
2024/01/10 00:54:40;;;;;;;25.50;20.33;;;-1.20;43.80;;;;;;20593;6717;278474;-76
2024/01/10 00:57:15;;;;;;;24.93;20.63;;;-1.10;43.60;;;;;;20788;6716;276720;-76
2024/01/10 00:59:51;;;;;;;20.17;15.63;;;-0.80;43.20;;;;;;21006;6717;117683;-75
2024/01/10 01:02:26;;;;;;;16.87;13.80;;;-0.90;43.10;;;;;;21008;6717;117309;-76
2024/01/10 01:05:02;;;;;;;19.67;14.17;;;-1.10;43.40;;;;;;20980;6717;118264;-75
2024/01/10 01:07:38;;;;;;;21.73;18.13;;;-1.30;43.80;;;;;;20778;6717;297660;-76
2024/01/10 01:10:14;;;;;;;21.67;14.40;;;-1.10;44.20;;;;;;21015;6717;117622;-75
2024/01/10 01:12:49;;;;;;;22.53;14.43;;;-1.10;44.10;;;;;;20944;6717;120769;-76
2024/01/10 01:15:25;;;;;;;21.50;15.10;;;-1.20;44.40;;;;;;21014;6717;119876;-77
2024/01/10 01:18:01;;;;;;;24.77;18.50;;;-1.20;44.70;;;;;;20805;6717;276594;-76
2024/01/10 01:20:36;;;;;;;24.20;19.63;;;-1.10;44.60;;;;;;20797;6597;305676;-78
2024/01/10 01:23:12;;;;;;;21.73;14.50;;;-0.70;44.20;;;;;;20919;6717;118988;-78
2024/01/10 01:25:47;;;;;;;21.20;18.70;;;-0.70;43.90;;;;;;20805;6717;306340;-80
2024/01/10 01:28:23;;;;;;;21.03;14.73;;;-0.70;43.80;;;;;;21030;6714;117190;-78
2024/01/10 01:30:59;;;;;;;17.70;13.50;;;-0.70;43.90;;;;;;20923;6739;118426;-78
2024/01/10 01:33:34;;;;;;;22.13;18.47;;;-0.90;44.10;;;;;;20654;6741;305509;-77
2024/01/10 01:36:10;;;;;;;22.80;18.70;;;-0.80;44.50;;;;;;20763;6729;307405;-76
2024/01/10 01:38:45;;;;;;;24.17;19.03;;;-0.50;44.10;;;;;;20739;6736;305686;-76
2024/01/10 01:41:21;;;;;;;21.80;18.55;;;-0.20;43.50;;;;;;20801;6731;305341;-77
2024/01/10 01:43:57;;;;;;;17.30;13.93;;;0.00;43.40;;;;;;20858;6718;117604;-80
2024/01/10 01:46:33;;;;;;;22.53;18.77;;;-0.20;43.60;;;;;;20806;6713;305220;-77
2024/01/10 01:49:09;;;;;;;16.40;13.93;;;-0.20;43.60;;;;;;20979;6720;117311;-77
2024/01/10 01:51:44;;;;;;;19.63;14.13;;;-0.30;43.70;;;;;;21043;6720;117567;-76
2024/01/10 01:54:20;;;;;;;20.83;17.53;;;-0.50;44.10;;;;;;20512;6746;307685;-77
2024/01/10 01:56:55;;;;;;;19.77;14.33;;;-0.40;44.50;;;;;;20992;6729;118733;-79
2024/01/10 01:59:31;;;;;;;18.47;13.13;;;-0.40;44.50;;;;;;20910;6747;119472;-78
2024/01/10 02:02:06;;;;;;;22.30;18.23;;;-0.60;44.70;;;;;;20753;6732;276418;-77
2024/01/10 02:04:42;;;;;;;22.90;19.70;;;-0.50;44.70;;;;;;20613;6747;308504;-80
2024/01/10 02:07:17;;;;;;;25.03;15.97;;;-0.20;44.00;;;;;;20967;6732;117334;-79
2024/01/10 02:09:53;;;;;;;22.80;14.70;;;-0.30;43.60;;;;;;21004;6732;118464;-78
2024/01/10 02:12:29;;;;;;;100.60;44.23;;;-0.50;44.00;;;;;;20965;6728;117338;-78
2024/01/10 02:15:05;;;;;;;40.43;21.53;;;-0.90;44.90;;;;;;21006;6713;117594;-77
2024/01/10 02:17:41;;;;;;;29.80;21.70;;;-0.90;44.90;;;;;;20807;6713;305338;-78
2024/01/10 02:20:17;;;;;;;24.43;15.77;;;-0.70;44.80;;;;;;20972;6729;117895;-78
2024/01/10 02:22:52;;;;;;;39.03;20.10;;;-0.70;44.60;;;;;;20909;6731;117872;-79
2024/01/10 02:25:27;;;;;;;46.60;27.00;;;-0.80;44.90;;;;;;20755;6732;307857;-78
2024/01/10 02:28:06;;;;;;;33.10;23.83;;;-0.60;45.00;;;;;;20705;6747;306204;-78
2024/01/10 02:30:40;;;;;;;21.23;15.47;;;-0.30;44.50;;;;;;20913;6746;119014;-79
2024/01/10 02:33:16;;;;;;;23.87;20.00;;;-0.30;44.30;;;;;;20694;6729;277205;-78
2024/01/10 02:35:51;;;;;;;23.55;19.50;;;-0.20;44.60;;;;;;20829;6699;277000;-79
2024/01/10 02:38:28;;;;;;;22.03;15.83;;;0.10;43.50;;;;;;21044;6699;117296;-78
2024/01/10 02:41:04;;;;;;;21.43;14.53;;;0.00;43.50;;;;;;21039;6699;117612;-77
2024/01/10 02:43:39;;;;;;;23.67;18.90;;;-0.20;43.90;;;;;;20750;6699;299360;-78
2024/01/10 02:46:16;;;;;;;22.43;19.27;;;0.00;44.30;;;;;;20846;6699;305196;-79
2024/01/10 02:48:56;;;;;;;21.60;15.30;;;0.00;44.30;;;;;;21051;6699;117229;-76
2024/01/10 02:51:32;;;;;;;23.33;19.30;;;0.00;44.30;;;;;;20850;6699;291626;-78
2024/01/10 02:54:07;;;;;;;23.47;15.57;;;0.00;43.90;;;;;;20901;6699;117420;-78
2024/01/10 02:56:43;;;;;;;18.27;13.90;;;0.00;44.00;;;;;;21099;6699;67410;-78
2024/01/10 02:59:19;;;;;;;20.80;14.40;;;-0.30;44.40;;;;;;21067;6699;118929;-78
2024/01/10 03:01:58;;;;;;;23.87;18.87;;;-0.50;44.80;;;;;;20852;6755;306373;-78
2024/01/10 03:04:34;;;;;;;23.02;19.95;;;-0.40;44.90;;;;;;20705;6699;339145;-77
2024/01/10 03:07:09;;;;;;;24.47;20.63;;;-0.10;44.70;;;;;;20552;6790;305787;-76
2024/01/10 03:09:45;;;;;;;26.20;19.20;;;0.20;44.10;;;;;;20956;6743;69026;-76
2024/01/10 03:12:26;;;;;;;24.13;20.00;;;0.10;43.90;;;;;;20775;6731;304649;-77
2024/01/10 03:15:01;;;;;;;23.10;17.77;;;0.00;43.80;;;;;;20981;6729;127461;-77
2024/01/10 03:17:43;;;;;;;91.80;52.90;;;-0.10;44.40;;;;;;20752;6729;276752;-76
2024/01/10 03:20:19;;;;;;;57.03;34.57;;;-0.10;44.30;;;;;;20810;6712;304613;-79
2024/01/10 03:22:55;;;;;;;50.40;28.10;;;0.20;44.00;;;;;;20894;6742;117286;-78
2024/01/10 03:25:37;;;;;;;25.80;21.83;;;0.10;43.90;;;;;;20718;6798;305622;-77
2024/01/10 03:28:18;;;;;;;29.58;22.75;;;0.00;43.80;;;;;;20640;6806;276127;-76
2024/01/10 03:30:55;;;;;;;21.50;16.10;;;0.30;43.20;;;;;;20956;6729;119686;-77
2024/01/10 03:33:30;;;;;;;24.63;16.73;;;0.10;43.00;;;;;;20845;6788;118643;-81
2024/01/10 03:36:07;;;;;;;25.03;20.50;;;-0.30;44.00;;;;;;20804;6717;278069;-79
2024/01/10 03:38:47;;;;;;;24.23;20.47;;;-0.30;43.90;;;;;;20774;6732;306314;-78
2024/01/10 03:41:25;;;;;;;21.67;15.50;;;0.00;43.60;;;;;;20988;6732;73149;-78
2024/01/10 03:44:00;;;;;;;25.50;15.67;;;-0.10;43.60;;;;;;20882;6721;117734;-79
2024/01/10 03:46:37;;;;;;;25.60;20.40;;;-0.30;44.10;;;;;;20805;6729;305456;-78
2024/01/10 03:49:16;;;;;;;22.90;16.17;;;-0.30;44.10;;;;;;21001;6731;119986;-79
2024/01/10 03:51:52;;;;;;;21.43;15.73;;;-0.50;44.40;;;;;;20997;6765;117947;-78
2024/01/10 03:54:28;;;;;;;26.62;20.77;;;-0.50;44.40;;;;;;20619;6709;336730;-77
2024/01/10 03:57:04;;;;;;;25.97;21.37;;;-0.20;43.30;;;;;;20659;6788;278122;-77
2024/01/10 03:59:40;;;;;;;21.97;16.70;;;-0.20;43.30;;;;;;21009;6714;121056;-76
2024/01/10 04:02:16;;;;;;;24.47;21.00;;;-0.20;43.40;;;;;;20811;6714;275638;-77
2024/01/10 04:04:53;;;;;;;23.47;20.97;;;-0.20;43.40;;;;;;20600;6770;308228;-77
2024/01/10 04:07:33;;;;;;;24.27;21.03;;;0.10;42.90;;;;;;20756;6732;277142;-77
2024/01/10 04:10:11;;;;;;;25.93;21.17;;;0.30;43.30;;;;;;20790;6731;305381;-77
2024/01/10 04:12:46;;;;;;;23.30;16.83;;;0.50;42.50;;;;;;20994;6728;116817;-77
2024/01/10 04:15:22;;;;;;;26.33;20.93;;;0.30;42.60;;;;;;20842;6714;304658;-77
2024/01/10 04:17:57;;;;;;;24.77;21.57;;;0.30;42.70;;;;;;20795;6714;307238;-77
2024/01/10 04:20:33;;;;;;;25.43;21.70;;;0.40;42.10;;;;;;20754;6726;276407;-77
2024/01/10 04:23:10;;;;;;;22.87;16.43;;;0.40;42.00;;;;;;20885;6726;117580;-76
2024/01/10 04:25:46;;;;;;;26.17;21.77;;;0.30;41.90;;;;;;20750;6729;277045;-79
2024/01/10 04:28:22;;;;;;;23.80;16.23;;;0.20;41.90;;;;;;21027;6711;117061;-77
2024/01/10 04:30:57;;;;;;;27.37;21.77;;;0.10;42.20;;;;;;20751;6725;306761;-78
2024/01/10 04:33:33;;;;;;;20.97;16.23;;;0.00;42.40;;;;;;20934;6710;118667;-77
2024/01/10 04:36:09;;;;;;;21.20;14.07;;;-0.10;42.60;;;;;;21008;6714;117056;-77
2024/01/10 04:38:44;;;;;;;25.57;20.83;;;-0.30;43.20;;;;;;20773;6714;307025;-77
2024/01/10 04:41:20;;;;;;;23.00;17.30;;;-0.20;43.70;;;;;;21065;6714;117354;-78
2024/01/10 04:43:57;;;;;;;24.80;16.13;;;-0.40;44.00;;;;;;20873;6714;117761;-77
2024/01/10 04:46:33;;;;;;;26.77;21.58;;;-0.50;43.90;;;;;;20798;6714;335399;-78
2024/01/10 04:49:08;;;;;;;22.37;17.13;;;-0.40;44.00;;;;;;21033;6699;117637;-77
2024/01/10 04:51:45;;;;;;;26.37;21.70;;;-0.40;43.80;;;;;;20852;6714;277398;-77
2024/01/10 04:54:20;;;;;;;22.30;16.83;;;-0.30;43.50;;;;;;20829;6717;118046;-77
2024/01/10 04:56:56;;;;;;;26.40;21.90;;;-0.40;43.40;;;;;;20786;6717;305193;-78
2024/01/10 04:59:31;;;;;;;26.57;17.40;;;-0.40;43.40;;;;;;21031;6717;116278;-77
2024/01/10 05:02:09;;;;;;;18.93;15.17;;;-0.70;43.90;;;;;;21028;6714;117343;-77
2024/01/10 05:04:45;;;;;;;27.70;22.13;;;-0.70;43.80;;;;;;20668;6714;308422;-77
2024/01/10 05:07:20;;;;;;;21.93;16.87;;;-0.60;44.20;;;;;;20951;6741;117267;-78
2024/01/10 05:09:57;;;;;;;28.90;22.27;;;-0.60;44.50;;;;;;20711;6744;293816;-77
2024/01/10 05:12:32;;;;;;;23.20;17.20;;;-0.60;44.50;;;;;;20913;6746;117280;-77
2024/01/10 05:15:08;;;;;;;26.50;22.20;;;-0.60;44.50;;;;;;20780;6714;275784;-78
2024/01/10 05:17:44;;;;;;;25.30;18.50;;;-0.60;44.70;;;;;;20977;6729;117375;-77
2024/01/10 05:20:20;;;;;;;22.20;15.90;;;-0.60;44.60;;;;;;21027;6714;117057;-80
2024/01/10 05:22:58;;;;;;;25.23;20.90;;;-0.80;45.20;;;;;;20652;6746;308647;-78
2024/01/10 05:25:32;;;;;;;23.17;16.70;;;-0.80;45.20;;;;;;20961;6729;117494;-81
2024/01/10 05:28:07;;;;;;;23.93;16.20;;;-0.80;45.10;;;;;;20918;6746;67823;-76
2024/01/10 05:30:43;;;;;;;27.03;21.50;;;-0.90;45.90;;;;;;20757;6731;278216;-79
2024/01/10 05:33:19;;;;;;;27.33;22.20;;;-0.90;45.90;;;;;;20666;6731;340110;-80
2024/01/10 05:35:54;;;;;;;25.20;17.13;;;-0.60;45.40;;;;;;21023;6714;117309;-79
2024/01/10 05:38:30;;;;;;;25.07;21.67;;;-0.60;45.20;;;;;;20857;6699;277408;-77
2024/01/10 05:41:06;;;;;;;26.07;17.70;;;-0.50;45.30;;;;;;20920;6731;192211;-77
2024/01/10 05:43:43;;;;;;;27.67;22.23;;;-0.60;45.20;;;;;;20648;6729;294261;-78
2024/01/10 05:46:19;;;;;;;25.27;18.27;;;-0.50;45.40;;;;;;21026;6736;67738;-82
2024/01/10 05:48:53;;;;;;;26.20;16.87;;;-0.60;45.20;;;;;;20972;6741;67593;-80
2024/01/10 05:51:29;;;;;;;28.80;23.23;;;-0.80;45.40;;;;;;20773;6730;306550;-79
2024/01/10 05:54:04;;;;;;;27.30;18.00;;;-0.80;45.00;;;;;;20878;6724;67883;-77
2024/01/10 05:56:40;;;;;;;28.93;22.93;;;-0.80;44.90;;;;;;20817;6716;287879;-80
2024/01/10 05:59:16;;;;;;;24.63;17.93;;;-0.80;45.00;;;;;;21023;6721;68283;-80
2024/01/10 06:01:52;;;;;;;29.63;23.53;;;-0.80;44.90;;;;;;20851;6721;306055;-79
2024/01/10 06:04:30;;;;;;;29.93;23.47;;;-0.80;44.80;;;;;;20610;6721;279745;-80
2024/01/10 06:07:04;;;;;;;28.50;23.30;;;-0.40;44.10;;;;;;20789;6731;306016;-79
2024/01/10 06:09:40;;;;;;;28.43;18.17;;;-0.40;43.60;;;;;;20999;6731;70908;-78
2024/01/10 06:12:19;;;;;;;26.33;15.53;;;-0.90;44.30;;;;;;21022;6717;71679;-78
2024/01/10 06:14:51;;;;;;;22.87;16.00;;;-0.90;44.20;;;;;;20845;6773;69927;-78
2024/01/10 06:17:27;;;;;;;28.20;21.63;;;-1.10;44.80;;;;;;20816;6717;298956;-78
2024/01/10 06:20:03;;;;;;;26.93;22.40;;;-1.10;45.30;;;;;;20818;6717;305453;-78
2024/01/10 06:22:38;;;;;;;26.33;22.15;;;-0.80;44.70;;;;;;20784;6717;305859;-79
2024/01/10 06:25:14;;;;;;;26.37;17.30;;;-0.60;44.10;;;;;;21036;6717;67613;-78
2024/01/10 06:27:49;;;;;;;27.50;22.13;;;-0.70;44.10;;;;;;20807;6717;276419;-78
2024/01/10 06:30:25;;;;;;;27.95;23.42;;;-0.70;44.80;;;;;;20806;6717;305865;-80
2024/01/10 06:33:01;;;;;;;24.10;18.50;;;-0.60;43.60;;;;;;20972;6716;68168;-78
2024/01/10 06:35:36;;;;;;;24.63;17.73;;;-0.70;43.70;;;;;;21035;6716;67976;-78
2024/01/10 06:38:12;;;;;;;28.87;22.40;;;-1.10;44.50;;;;;;20818;6716;306721;-80
2024/01/10 06:40:47;;;;;;;25.30;17.63;;;-1.10;44.30;;;;;;21029;6716;73249;-77
2024/01/10 06:43:23;;;;;;;24.57;16.80;;;-1.20;44.20;;;;;;20940;6716;73860;-77
2024/01/10 06:45:58;;;;;;;20.93;14.67;;;-1.40;44.60;;;;;;21035;6716;66970;-77
2024/01/10 06:48:35;;;;;;;27.87;21.27;;;-1.60;45.20;;;;;;20819;6716;305488;-79
2024/01/10 06:51:14;;;;;;;22.20;16.47;;;-1.60;45.20;;;;;;21015;6717;120018;-78
2024/01/10 06:53:52;;;;;;;24.17;16.23;;;-1.70;45.40;;;;;;20881;6717;118605;-75
2024/01/10 06:56:28;;;;;;;29.17;22.13;;;-1.60;45.60;;;;;;20813;6717;305323;-74
2024/01/10 06:59:04;;;;;;;25.33;21.57;;;-1.60;45.60;;;;;;20779;6717;305143;-77
2024/01/10 07:01:39;;;;;;;30.17;17.73;;;-1.30;45.20;;;;;;21015;6717;117707;-77
2024/01/10 07:04:18;;;;;;;26.97;20.90;;;-1.30;45.00;;;;;;20635;6717;278224;-78
2024/01/10 07:06:51;;;;;;;29.60;23.00;;;-1.20;45.40;;;;;;20783;6717;303575;-77
2024/01/10 07:09:26;;;;;;;24.03;17.33;;;-0.90;45.10;;;;;;20914;6717;117496;-77
2024/01/10 07:12:04;;;;;;;28.73;22.43;;;-1.00;44.80;;;;;;20753;6717;276426;-77
2024/01/10 07:14:37;;;;;;;28.27;22.35;;;-1.00;44.90;;;;;;20580;6717;280860;-77
2024/01/10 07:17:13;;;;;;;29.60;23.58;;;-0.80;44.70;;;;;;20762;6717;335900;-77
2024/01/10 07:19:49;;;;;;;34.37;19.33;;;-0.60;44.40;;;;;;20986;6717;119838;-78
2024/01/10 07:22:24;;;;;;;28.40;23.10;;;-0.70;44.30;;;;;;20754;6727;276233;-78
2024/01/10 07:25:00;;;;;;;30.13;23.13;;;-0.70;44.50;;;;;;20713;6731;306479;-77
2024/01/10 07:27:37;;;;;;;27.93;23.20;;;-0.60;44.40;;;;;;20718;6738;276029;-80
2024/01/10 07:30:14;;;;;;;28.30;23.87;;;-0.40;44.10;;;;;;20687;6747;307607;-77
2024/01/10 07:32:52;;;;;;;27.03;19.50;;;-0.30;43.90;;;;;;20889;6742;119941;-77
2024/01/10 07:35:29;;;;;;;24.93;17.43;;;-0.40;44.40;;;;;;20968;6731;118715;-78
2024/01/10 07:38:03;;;;;;;23.90;17.33;;;-0.60;44.30;;;;;;21019;6714;117126;-77
2024/01/10 07:40:39;;;;;;;22.70;16.27;;;-0.90;44.80;;;;;;20966;6732;117682;-78
2024/01/10 07:43:16;;;;;;;29.80;24.17;;;-1.00;45.50;;;;;;20709;6714;308138;-83
2024/01/10 07:45:52;;;;;;;29.33;24.37;;;-1.10;45.10;;;;;;20812;6714;307008;-78
2024/01/10 07:48:30;;;;;;;30.27;24.80;;;-0.70;44.90;;;;;;20835;6714;275630;-77
2024/01/10 07:51:04;;;;;;;23.77;18.03;;;-0.40;44.60;;;;;;21022;6714;146233;-78
2024/01/10 07:53:39;;;;;;;25.47;18.63;;;-0.60;44.40;;;;;;20916;6714;119132;-78
2024/01/10 07:56:14;;;;;;;27.93;17.10;;;-0.80;44.90;;;;;;21068;6714;116749;-77
2024/01/10 07:58:51;;;;;;;25.90;17.57;;;-1.00;45.50;;;;;;21029;6714;117638;-78
2024/01/10 08:01:27;;;;;;;27.57;22.63;;;-1.20;45.90;;;;;;20848;6714;275143;-76
2024/01/10 08:04:03;;;;;;;26.67;19.33;;;-1.10;46.60;;;;;;20907;6714;117157;-79
2024/01/10 08:06:38;;;;;;;33.40;25.20;;;-1.00;46.40;;;;;;20851;6714;305706;-79
2024/01/10 08:09:15;;;;;;;29.77;23.57;;;-0.80;46.30;;;;;;20816;6714;291872;-79
2024/01/10 08:11:51;;;;;;;26.93;22.37;;;-0.40;46.10;;;;;;20814;6714;305513;-78
2024/01/10 08:14:27;;;;;;;25.83;18.30;;;0.00;45.60;;;;;;20821;6731;117737;-79
2024/01/10 08:17:03;;;;;;;25.07;17.87;;;-0.10;45.50;;;;;;20944;6732;117807;-78
2024/01/10 08:19:38;;;;;;;26.50;18.03;;;-0.10;45.90;;;;;;21005;6732;117758;-78
2024/01/10 08:22:15;;;;;;;29.77;23.27;;;-0.10;45.90;;;;;;20801;6731;276560;-78
2024/01/10 08:24:50;;;;;;;27.63;23.33;;;-0.10;45.90;;;;;;20512;6802;321737;-78
2024/01/10 08:27:26;;;;;;;26.70;17.83;;;0.30;44.70;;;;;;21028;6714;118003;-78
2024/01/10 08:30:05;;;;;;;24.77;16.77;;;0.30;44.70;;;;;;21006;6717;117154;-78
2024/01/10 08:32:41;;;;;;;23.80;16.80;;;0.30;44.70;;;;;;20988;6717;117852;-79
2024/01/10 08:35:16;;;;;;;25.00;16.73;;;0.10;45.00;;;;;;21001;6716;117067;-78
2024/01/10 08:38:15;;;;;;;23.57;20.90;;;0.00;45.30;;;;;;20799;6717;308755;-78
2024/01/10 08:40:48;;;;;;;24.53;17.40;;;0.20;45.40;;;;;;20988;6717;152061;-78
2024/01/10 08:43:24;;;;;;;26.03;21.73;;;0.20;45.10;;;;;;20707;6717;314499;-79
2024/01/10 08:45:59;;;;;;;28.37;19.00;;;0.40;44.80;;;;;;21015;6717;118241;-80
2024/01/10 08:48:36;;;;;;;29.03;21.77;;;0.60;44.40;;;;;;20790;6717;307218;-78
2024/01/10 08:51:12;;;;;;;23.07;17.67;;;0.60;44.40;;;;;;20996;6717;117488;-78
2024/01/10 08:53:47;;;;;;;23.33;17.70;;;0.60;44.40;;;;;;20883;6717;119494;-78
2024/01/10 08:56:22;;;;;;;28.60;22.57;;;0.50;44.80;;;;;;20804;6716;275996;-78
2024/01/10 08:59:01;;;;;;;28.03;23.23;;;0.50;43.80;;;;;;20763;6716;305376;-78
2024/01/10 09:01:38;;;;;;;27.08;22.08;;;0.80;43.20;;;;;;20795;6716;334039;-78
2024/01/10 09:04:12;;;;;;;26.33;17.77;;;0.90;42.50;;;;;;20840;6716;117943;-77
2024/01/10 09:06:48;;;;;;;27.43;16.63;;;0.80;42.70;;;;;;20996;6716;117946;-79
2024/01/10 09:09:23;;;;;;;23.37;16.57;;;0.50;43.40;;;;;;21011;6716;117127;-78
2024/01/10 09:12:00;;;;;;;27.13;21.70;;;0.40;43.90;;;;;;20804;6716;276098;-77
2024/01/10 09:14:36;;;;;;;26.77;17.93;;;0.40;43.90;;;;;;20805;6717;117857;-78
2024/01/10 09:17:11;;;;;;;26.10;16.03;;;0.40;44.50;;;;;;20998;6717;116966;-78
2024/01/10 09:19:47;;;;;;;31.10;23.13;;;0.20;44.10;;;;;;20799;6717;276144;-78
2024/01/10 09:22:23;;;;;;;28.77;19.73;;;0.30;44.00;;;;;;21014;6717;118024;-77
2024/01/10 09:25:03;;;;;;;24.37;16.77;;;0.30;44.10;;;;;;20994;6717;117111;-78
2024/01/10 09:27:34;;;;;;;29.27;23.50;;;0.20;45.20;;;;;;20804;6717;305550;-78
2024/01/10 09:30:11;;;;;;;29.90;23.07;;;0.30;44.40;;;;;;20794;6717;276614;-77
2024/01/10 09:32:47;;;;;;;24.43;18.70;;;0.60;43.50;;;;;;20965;6717;117775;-77
2024/01/10 09:35:24;;;;;;;26.47;18.17;;;0.70;43.80;;;;;;21005;6717;117238;-78
2024/01/10 09:38:00;;;;;;;27.95;23.67;;;0.60;44.20;;;;;;20801;6717;304823;-77
2024/01/10 09:40:35;;;;;;;28.20;19.53;;;0.80;43.60;;;;;;21002;6717;117102;-77
2024/01/10 09:43:12;;;;;;;27.83;22.97;;;1.10;43.30;;;;;;20707;6717;308606;-77
2024/01/10 09:45:48;;;;;;;25.87;18.57;;;1.10;43.30;;;;;;21008;6717;118660;-78
2024/01/10 09:48:24;;;;;;;29.60;24.23;;;1.20;43.30;;;;;;20797;6717;277089;-77
2024/01/10 09:51:01;;;;;;;28.13;24.20;;;1.40;42.60;;;;;;20780;6717;305094;-78
2024/01/10 09:53:36;;;;;;;27.83;19.27;;;1.70;41.80;;;;;;20903;6717;117486;-78
2024/01/10 09:56:13;;;;;;;21.97;17.20;;;1.70;42.00;;;;;;21017;6717;117495;-78
2024/01/10 09:58:49;;;;;;;24.90;17.60;;;1.60;42.60;;;;;;20993;6717;117079;-78
2024/01/10 10:01:24;;;;;;;25.50;17.03;;;1.40;43.20;;;;;;21009;6717;117257;-78
2024/01/10 10:04:01;;;;;;;25.47;21.97;;;1.50;42.80;;;;;;20651;6717;302216;-78
2024/01/10 10:06:36;;;;;;;25.87;18.23;;;1.40;42.70;;;;;;21020;6717;117402;-78
2024/01/10 10:09:13;;;;;;;21.93;16.73;;;1.60;42.90;;;;;;20994;6716;117547;-78
2024/01/10 10:11:49;;;;;;;20.53;16.03;;;1.50;44.10;;;;;;21017;6716;116944;-78
2024/01/10 10:14:26;;;;;;;24.67;17.70;;;1.50;43.50;;;;;;20825;6716;117675;-78
2024/01/10 10:17:13;;;;;;;23.33;15.03;;;1.50;43.80;;;;;;20991;6716;117467;-75
2024/01/10 10:19:52;;;;;;;23.50;20.97;;;1.50;44.10;;;;;;20795;6716;305918;-81
2024/01/10 10:22:37;;;;;;;26.45;22.50;;;1.80;44.20;;;;;;20788;6716;307682;-83
2024/01/10 10:25:04;;;;;;;28.70;22.15;;;2.40;43.50;;;;;;20764;6716;305261;-81
2024/01/10 10:27:39;;;;;;;26.80;18.77;;;2.90;42.50;;;;;;21010;6717;117694;-80
2024/01/10 10:30:14;;;;;;;22.17;16.67;;;3.00;42.50;;;;;;21009;6717;121692;-77
2024/01/10 10:32:50;;;;;;;23.73;20.80;;;3.00;42.30;;;;;;20725;6717;310326;-78
2024/01/10 10:35:26;;;;;;;20.90;16.47;;;3.20;42.70;;;;;;21014;6717;117198;-77
2024/01/10 10:38:03;;;;;;;21.03;15.03;;;3.20;42.90;;;;;;21019;6717;116809;-82
2024/01/10 10:40:39;;;;;;;21.97;14.77;;;3.20;42.90;;;;;;21014;6717;119879;-79
2024/01/10 10:43:15;;;;;;;20.37;14.20;;;3.20;43.10;;;;;;20918;6716;117497;-79
2024/01/10 10:45:51;;;;;;;19.70;17.40;;;3.10;43.40;;;;;;20792;6717;305534;-78
2024/01/10 10:48:26;;;;;;;21.23;18.93;;;3.30;43.10;;;;;;20798;6717;305043;-77
2024/01/10 10:51:11;;;;;;;22.03;19.40;;;3.60;42.20;;;;;;20777;6717;277539;-77
2024/01/10 10:53:48;;;;;;;21.48;19.17;;;4.20;41.20;;;;;;20667;6717;337176;-74
2024/01/10 10:56:23;;;;;;;18.97;15.53;;;4.20;40.50;;;;;;21011;6717;116980;-76
2024/01/10 10:58:59;;;;;;;21.60;19.27;;;4.20;40.90;;;;;;20773;6717;305497;-77
2024/01/10 11:01:38;;;;;;;18.33;15.20;;;4.20;41.20;;;;;;21010;6717;119671;-76
2024/01/10 11:04:11;;;;;;;20.48;18.37;;;4.20;41.20;;;;;;20606;6746;337644;-77
2024/01/10 11:06:46;;;;;;;21.85;18.60;;;4.20;41.10;;;;;;20795;6717;333961;-77
2024/01/10 11:09:23;;;;;;;17.50;14.67;;;4.50;40.40;;;;;;21012;6717;118132;-77
2024/01/10 11:12:04;;;;;;;18.37;14.43;;;4.50;40.80;;;;;;21013;6717;117521;-77
2024/01/10 11:14:54;;;;;;;17.83;13.77;;;4.30;41.40;;;;;;20799;6717;119637;-77
2024/01/10 11:17:55;;;;;;;22.05;18.20;;;4.10;42.00;;;;;;20299;6771;305283;-77
2024/01/10 11:20:50;;;;;;;16.77;13.40;;;4.20;41.30;;;;;;21011;6716;120031;-78
2024/01/10 11:23:39;;;;;;;19.30;17.03;;;4.30;41.30;;;;;;20706;6716;279221;-76
2024/01/10 11:26:15;;;;;;;18.53;16.53;;;4.70;40.50;;;;;;20799;6716;276091;-75
2024/01/10 11:28:51;;;;;;;20.70;18.50;;;4.70;40.20;;;;;;20775;6716;334462;-76
2024/01/10 11:31:26;;;;;;;17.23;14.67;;;4.90;39.70;;;;;;21014;6716;117119;-77
2024/01/10 11:34:06;;;;;;;16.50;14.17;;;4.70;40.70;;;;;;20857;6716;117438;-76
2024/01/10 11:36:41;;;;;;;20.20;14.57;;;4.70;40.80;;;;;;21017;6716;120518;-75
2024/01/10 11:39:17;;;;;;;19.90;15.00;;;4.50;41.30;;;;;;20901;6788;117158;-74
2024/01/10 11:41:52;;;;;;;20.52;18.40;;;4.40;41.70;;;;;;20853;6699;306257;-73
2024/01/10 11:44:28;;;;;;;16.83;13.67;;;4.50;40.90;;;;;;20819;6717;120510;-75
2024/01/10 11:47:05;;;;;;;21.97;18.60;;;4.60;40.40;;;;;;20785;6717;285461;-74
2024/01/10 11:49:40;;;;;;;21.20;15.40;;;4.60;40.40;;;;;;21012;6717;119601;-74
2024/01/10 11:52:17;;;;;;;19.10;17.20;;;4.60;40.50;;;;;;20798;6717;304631;-74
2024/01/10 11:54:51;;;;;;;20.13;17.90;;;4.60;39.80;;;;;;20601;6773;278135;-76
2024/01/10 11:57:27;;;;;;;17.60;15.53;;;4.80;39.80;;;;;;21014;6717;121041;-77
2024/01/10 12:00:05;;;;;;;20.37;15.00;;;4.80;40.30;;;;;;21012;6717;119660;-76
2024/01/10 12:02:39;;;;;;;17.30;15.00;;;4.60;40.70;;;;;;20993;6717;116969;-76
2024/01/10 12:05:16;;;;;;;21.95;18.23;;;4.50;41.10;;;;;;20785;6716;318102;-75
2024/01/10 12:07:52;;;;;;;18.47;13.97;;;4.40;40.70;;;;;;21016;6717;119773;-74
2024/01/10 12:10:30;;;;;;;20.47;18.10;;;4.50;41.20;;;;;;20792;6717;303359;-78
2024/01/10 12:13:04;;;;;;;20.57;18.47;;;4.60;41.00;;;;;;20720;6717;308142;-80
2024/01/10 12:15:40;;;;;;;20.80;18.60;;;5.10;39.70;;;;;;20797;6717;305105;-80
2024/01/10 12:18:16;;;;;;;21.77;19.47;;;5.10;39.30;;;;;;20801;6717;316998;-81
2024/01/10 12:20:51;;;;;;;21.37;19.07;;;5.30;39.50;;;;;;20784;6717;277734;-77
2024/01/10 12:23:31;;;;;;;21.15;18.90;;;5.40;39.10;;;;;;20690;6717;309677;-77
2024/01/10 12:26:14;;;;;;;18.53;16.73;;;5.50;39.10;;;;;;20788;6717;299020;-79
2024/01/10 12:28:56;;;;;;;20.20;16.00;;;5.60;39.00;;;;;;20997;6717;119908;-81
2024/01/10 12:31:31;;;;;;;19.13;16.57;;;5.40;39.90;;;;;;20796;6716;322862;-79
2024/01/10 12:34:08;;;;;;;20.50;14.77;;;5.40;39.50;;;;;;20850;6716;117579;-76
2024/01/10 12:36:47;;;;;;;17.93;13.93;;;5.20;40.10;;;;;;21023;6716;116147;-77
2024/01/10 12:39:18;;;;;;;19.57;17.63;;;5.00;40.90;;;;;;20781;6716;305680;-75
2024/01/10 12:41:54;;;;;;;18.60;15.00;;;5.00;40.30;;;;;;21007;6716;116052;-75
2024/01/10 12:44:33;;;;;;;20.37;18.17;;;4.90;40.80;;;;;;20600;6716;307763;-78
2024/01/10 12:47:08;;;;;;;21.48;19.17;;;5.00;40.60;;;;;;20779;6716;306084;-75
2024/01/10 12:49:44;;;;;;;16.73;14.00;;;5.20;39.80;;;;;;21007;6717;117081;-75
2024/01/10 12:52:21;;;;;;;16.73;13.80;;;4.90;41.00;;;;;;21010;6717;117097;-75
2024/01/10 12:54:56;;;;;;;19.33;17.23;;;4.80;40.90;;;;;;20602;6773;306697;-75
2024/01/10 12:57:32;;;;;;;19.50;17.42;;;4.90;40.90;;;;;;20796;6717;305140;-75
2024/01/10 13:00:08;;;;;;;20.95;18.77;;;5.20;40.70;;;;;;20797;6717;305275;-75
2024/01/10 13:02:44;;;;;;;20.10;18.00;;;5.50;39.20;;;;;;20773;6717;276021;-76
2024/01/10 13:05:19;;;;;;;22.03;16.77;;;5.50;39.30;;;;;;20996;6716;117131;-76
2024/01/10 13:07:56;;;;;;;15.10;13.50;;;5.40;40.00;;;;;;21013;6717;120113;-76